| time (UTC) | temp C | wind direction | speed KPH | gust KPH | rain 1hr cm | rain 24hr cm | rain mn cm | humidity % | barometer mb |
| 20260505153303 | 22 | 36 | 6.4 | 14.5 | 0.00 | 0.00 | 0.00 | 79 | 1015.6 |
| 20260505153104 | 21 | 36 | 6.4 | 11.3 | 0.00 | 0.00 | 0.00 | 79 | 1015.6 |
| 20260505152803 | 21 | 70 | 8.0 | 14.5 | 0.00 | 0.00 | 0.00 | 80 | 1015.6 |
| 20260505152305 | 21 | 70 | 8.0 | 14.5 | 0.00 | 0.00 | 0.00 | 80 | 1015.6 |
| 20260505151804 | 21 | 70 | 6.4 | 14.5 | 0.00 | 0.00 | 0.00 | 80 | 1015.6 |
| 20260505151603 | 21 | 70 | 8.0 | 14.5 | 0.00 | 0.00 | 0.00 | 80 | 1015.5 |
| 20260505151304 | 21 | 44 | 4.8 | 12.9 | 0.00 | 0.00 | 0.00 | 81 | 1015.6 |
| 20260505150804 | 21 | 44 | 4.8 | 12.9 | 0.00 | 0.00 | 0.00 | 81 | 1015.6 |
| 20260505150304 | 21 | 44 | 4.8 | 12.9 | 0.00 | 0.00 | 0.00 | 81 | 1015.6 |
| 20260505140104 | 20 | 52 | 6.4 | 12.9 | 0.00 | 0.00 | 0.00 | 79 | 1015.1 |
| 20260505130304 | 18 | 0 | 0.0 | 3.2 | 0.00 | 0.00 | 0.00 | 82 | 1014.6 |
| 20260505124804 | 18 | 0 | 0.0 | 3.2 | 0.00 | 0.00 | 0.00 | 82 | 1014.6 |
| 20260505124557 | 18 | 0 | 0.0 | 3.2 | 0.00 | 0.00 | 0.00 | 82 | 1014.6 |
| 20260505124304 | 17 | 0 | 0.0 | 1.6 | 0.00 | 0.00 | 0.00 | 82 | 1014.6 |
| 20260505123804 | 17 | 0 | 0.0 | 1.6 | 0.00 | 0.00 | 0.00 | 82 | 1014.6 |
| 20260505123304 | 17 | 0 | 0.0 | 1.6 | 0.00 | 0.00 | 0.00 | 82 | 1014.6 |
| 20260505123059 | 17 | 0 | 0.0 | 1.6 | 0.00 | 0.00 | 0.00 | 82 | 1014.5 |
| 20260505122804 | 17 | 0 | 0.0 | 1.6 | 0.00 | 0.00 | 0.00 | 82 | 1014.6 |
| 20260505122305 | 17 | 0 | 0.0 | 3.2 | 0.00 | 0.00 | 0.00 | 82 | 1014.6 |
| 20260505121804 | 16 | 0 | 0.0 | 3.2 | 0.00 | 0.00 | 0.00 | 83 | 1014.6 |
| 20260505121625 | 17 | 0 | 0.0 | 1.6 | 0.00 | 0.00 | 0.00 | 82 | 1014.6 |
| 20260505120804 | 16 | 0 | 0.0 | 3.2 | 0.00 | 0.00 | 0.00 | 83 | 1014.6 |
| 20260505120304 | 16 | 0 | 0.0 | 0.0 | 0.00 | 0.00 | 0.00 | 84 | 1014.2 |
| 20260505120058 | 16 | 0 | 0.0 | 3.2 | 0.00 | 0.00 | 0.00 | 83 | 1014.5 |
| 20260505115803 | 16 | 0 | 0.0 | 0.0 | 0.00 | 0.00 | 0.00 | 84 | 1014.2 |
| 20260505115305 | 16 | 0 | 0.0 | 0.0 | 0.00 | 0.00 | 0.00 | 84 | 1014.2 |
| 20260505114804 | 15 | 0 | 0.0 | 0.0 | 0.00 | 0.00 | 0.00 | 85 | 1014.2 |
| 20260505114556 | 16 | 0 | 0.0 | 0.0 | 0.00 | 0.00 | 0.00 | 84 | 1014.2 |
| 20260505114303 | 15 | 0 | 0.0 | 0.0 | 0.00 | 0.00 | 0.00 | 85 | 1014.2 |
| 20260505113804 | 15 | 0 | 0.0 | 0.0 | 0.00 | 0.00 | 0.00 | 85 | 1014.2 |
| 20260505113304 | 15 | 0 | 0.0 | 0.0 | 0.00 | 0.00 | 0.00 | 85 | 1014.2 |
| 20260505113056 | 15 | 0 | 0.0 | 0.0 | 0.00 | 0.00 | 0.00 | 85 | 1014.1 |
| 20260505112305 | 15 | 0 | 0.0 | 0.0 | 0.00 | 0.00 | 0.00 | 85 | 1014.2 |
| 20260505111804 | 15 | 0 | 0.0 | 0.0 | 0.00 | 0.00 | 0.00 | 83 | 1014.2 |
| 20260505111557 | 15 | 0 | 0.0 | 0.0 | 0.00 | 0.00 | 0.00 | 85 | 1014.1 |
| 20260505110804 | 15 | 0 | 0.0 | 0.0 | 0.00 | 0.00 | 0.00 | 83 | 1014.2 |
| 20260505110304 | 15 | 0 | 0.0 | 0.0 | 0.00 | 0.00 | 0.00 | 83 | 1013.9 |
| 20260505101805 | 16 | 0 | 0.0 | 1.6 | 0.00 | 0.00 | 0.00 | 81 | 1013.9 |
| 20260505101558 | 15 | 0 | 0.0 | 0.0 | 0.00 | 0.00 | 0.00 | 81 | 1013.9 |
| 20260505101304 | 16 | 0 | 0.0 | 1.6 | 0.00 | 0.00 | 0.00 | 81 | 1013.5 |
| 20260505100804 | 16 | 0 | 0.0 | 3.2 | 0.00 | 0.00 | 0.00 | 81 | 1013.5 |
| 20260505100304 | 16 | 0 | 0.0 | 3.2 | 0.00 | 0.00 | 0.00 | 84 | 1013.9 |
| 20260505100100 | 16 | 0 | 0.0 | 1.6 | 0.00 | 0.00 | 0.00 | 81 | 1013.6 |
| 20260505095803 | 16 | 0 | 0.0 | 3.2 | 0.00 | 0.00 | 0.00 | 84 | 1013.9 |
| 20260505095305 | 16 | 0 | 0.0 | 3.2 | 0.00 | 0.00 | 0.00 | 84 | 1013.9 |
| 20260505094558 | 16 | 0 | 0.0 | 3.2 | 0.00 | 0.00 | 0.00 | 84 | 1013.8 |
| 20260505094304 | 16 | 0 | 0.0 | 0.0 | 0.00 | 0.00 | 0.00 | 85 | 1013.9 |
| 20260505093804 | 16 | 0 | 0.0 | 0.0 | 0.00 | 0.00 | 0.00 | 85 | 1013.9 |
| 20260505093056 | 16 | 0 | 0.0 | 0.0 | 0.00 | 0.00 | 0.00 | 85 | 1013.7 |
| 20260505092305 | 17 | 0 | 0.0 | 0.0 | 0.00 | 0.00 | 0.00 | 84 | 1013.5 |
| 20260505091804 | 17 | 0 | 0.0 | 0.0 | 0.00 | 0.00 | 0.00 | 82 | 1013.5 |
| 20260505091557 | 16 | 0 | 0.0 | 0.0 | 0.00 | 0.00 | 0.00 | 84 | 1013.4 |
| 20260505091304 | 17 | 0 | 0.0 | 0.0 | 0.00 | 0.00 | 0.00 | 82 | 1013.5 |
| 20260505090804 | 17 | 0 | 0.0 | 0.0 | 0.00 | 0.00 | 0.00 | 82 | 1013.5 |
| 20260505090304 | 17 | 0 | 0.0 | 0.0 | 0.00 | 0.00 | 0.00 | 82 | 1013.5 |
| 20260505090105 | 17 | 0 | 0.0 | 0.0 | 0.00 | 0.00 | 0.00 | 82 | 1013.4 |
| 20260505085804 | 17 | 0 | 0.0 | 0.0 | 0.00 | 0.00 | 0.00 | 83 | 1013.2 |
| 20260505085305 | 17 | 0 | 0.0 | 0.0 | 0.00 | 0.00 | 0.00 | 83 | 1013.2 |
| 20260505084804 | 17 | 0 | 0.0 | 0.0 | 0.00 | 0.00 | 0.00 | 83 | 1013.2 |
| 20260505084555 | 17 | 0 | 0.0 | 0.0 | 0.00 | 0.00 | 0.00 | 83 | 1013.2 |
| 20260505084304 | 17 | 0 | 0.0 | 0.0 | 0.00 | 0.00 | 0.00 | 83 | 1013.2 |
| 20260505083804 | 17 | 0 | 0.0 | 0.0 | 0.00 | 0.00 | 0.00 | 83 | 1013.2 |
| 20260505083304 | 17 | 0 | 0.0 | 0.0 | 0.00 | 0.00 | 0.00 | 83 | 1013.2 |
| 20260505083102 | 16 | 0 | 0.0 | 0.0 | 0.00 | 0.00 | 0.00 | 83 | 1013.1 |
| 20260505082305 | 17 | 0 | 0.0 | 1.6 | 0.00 | 0.00 | 0.00 | 83 | 1013.2 |
| 20260505081804 | 17 | 0 | 0.0 | 1.6 | 0.00 | 0.00 | 0.00 | 81 | 1013.2 |
| 20260505081557 | 17 | 0 | 0.0 | 0.0 | 0.00 | 0.00 | 0.00 | 83 | 1013.1 |
| 20260505081305 | 17 | 0 | 0.0 | 1.6 | 0.00 | 0.00 | 0.00 | 81 | 1013.2 |
| 20260505080804 | 17 | 0 | 0.0 | 1.6 | 0.00 | 0.00 | 0.00 | 81 | 1013.2 |
| 20260505080304 | 17 | 0 | 0.0 | 1.6 | 0.00 | 0.00 | 0.00 | 78 | 1013.5 |
| 20260505080058 | 17 | 0 | 0.0 | 1.6 | 0.00 | 0.00 | 0.00 | 81 | 1013.3 |
| 20260505075804 | 17 | 0 | 0.0 | 1.6 | 0.00 | 0.00 | 0.00 | 78 | 1013.5 |
| 20260505075304 | 17 | 0 | 0.0 | 1.6 | 0.00 | 0.00 | 0.00 | 78 | 1013.5 |
| 20260505074804 | 17 | 0 | 0.0 | 1.6 | 0.00 | 0.00 | 0.00 | 77 | 1013.4 |
| 20260505074555 | 17 | 0 | 0.0 | 1.6 | 0.00 | 0.00 | 0.00 | 78 | 1013.4 |
| 20260505074305 | 18 | 0 | 0.0 | 1.6 | 0.00 | 0.00 | 0.00 | 76 | 1013.2 |
| 20260505073804 | 18 | 0 | 0.0 | 1.6 | 0.00 | 0.00 | 0.00 | 76 | 1013.2 |
| 20260505073304 | 18 | 0 | 0.0 | 1.6 | 0.00 | 0.00 | 0.00 | 76 | 1013.2 |
| 20260505073059 | 18 | 0 | 0.0 | 1.6 | 0.00 | 0.00 | 0.00 | 76 | 1013.3 |
| 20260505072804 | 18 | 0 | 0.0 | 0.0 | 0.00 | 0.00 | 0.00 | 72 | 1013.5 |
| 20260505072305 | 18 | 0 | 0.0 | 0.0 | 0.00 | 0.00 | 0.00 | 72 | 1013.5 |
| 20260505071804 | 18 | 0 | 0.0 | 0.0 | 0.00 | 0.00 | 0.00 | 73 | 1013.5 |
| 20260505071556 | 18 | 0 | 0.0 | 0.0 | 0.00 | 0.00 | 0.00 | 72 | 1013.5 |
| 20260505070305 | 19 | 295 | 0.0 | 3.2 | 0.00 | 0.00 | 0.00 | 73 | 1013.9 |
| 20260505070055 | 18 | 0 | 0.0 | 0.0 | 0.00 | 0.00 | 0.00 | 73 | 1013.6 |
| 20260505065304 | 19 | 295 | 0.0 | 4.8 | 0.00 | 0.00 | 0.00 | 73 | 1013.9 |
| 20260505064804 | 20 | 238 | 1.6 | 4.8 | 0.00 | 0.00 | 0.00 | 66 | 1014.2 |
| 20260505064558 | 19 | 295 | 1.6 | 3.2 | 0.00 | 0.00 | 0.00 | 73 | 1013.9 |
| 20260505063804 | 20 | 238 | 1.6 | 4.8 | 0.00 | 0.00 | 0.00 | 66 | 1014.2 |
| 20260505063304 | 20 | 243 | 3.2 | 9.7 | 0.00 | 0.00 | 0.00 | 65 | 1014.2 |
| 20260505063056 | 20 | 238 | 1.6 | 4.8 | 0.00 | 0.00 | 0.00 | 66 | 1014.1 |
| 20260505062804 | 20 | 244 | 3.2 | 9.7 | 0.00 | 0.00 | 0.00 | 65 | 1014.2 |
| 20260505062304 | 20 | 244 | 3.2 | 9.7 | 0.00 | 0.00 | 0.00 | 65 | 1014.2 |
| 20260505061804 | 20 | 244 | 4.8 | 9.7 | 0.00 | 0.00 | 0.00 | 65 | 1014.2 |
| 20260505061602 | 20 | 244 | 3.2 | 9.7 | 0.00 | 0.00 | 0.00 | 65 | 1014.2 |
| 20260505061303 | 20 | 227 | 4.8 | 9.7 | 0.00 | 0.00 | 0.00 | 65 | 1014.2 |
| 20260505060803 | 20 | 227 | 4.8 | 11.3 | 0.00 | 0.00 | 0.00 | 65 | 1014.2 |
| 20260505060305 | 20 | 225 | 3.2 | 11.3 | 0.00 | 0.00 | 0.00 | 64 | 1014.6 |
| 20260505060059 | 20 | 227 | 6.4 | 9.7 | 0.00 | 0.00 | 0.00 | 65 | 1014.3 |
| 20260505055804 | 20 | 225 | 3.2 | 11.3 | 0.00 | 0.00 | 0.00 | 64 | 1014.6 |
| 20260505055304 | 20 | 225 | 3.2 | 11.3 | 0.00 | 0.00 | 0.00 | 64 | 1014.6 |
| 20260505054804 | 20 | 177 | 4.8 | 11.3 | 0.00 | 0.00 | 0.00 | 65 | 1014.9 |
| 20260505054559 | 20 | 225 | 6.4 | 11.3 | 0.00 | 0.00 | 0.00 | 64 | 1014.5 |
| 20260505054304 | 20 | 177 | 4.8 | 11.3 | 0.00 | 0.00 | 0.00 | 65 | 1014.9 |
| 20260505053804 | 20 | 177 | 4.8 | 11.3 | 0.00 | 0.00 | 0.00 | 65 | 1014.9 |
| 20260505053304 | 20 | 211 | 4.8 | 9.7 | 0.00 | 0.00 | 0.00 | 65 | 1014.6 |
| 20260505053106 | 20 | 177 | 8.0 | 11.3 | 0.00 | 0.00 | 0.00 | 65 | 1014.7 |
| 20260505052804 | 20 | 211 | 4.8 | 9.7 | 0.00 | 0.00 | 0.00 | 65 | 1014.6 |
| 20260505051557 | 20 | 211 | 3.2 | 9.7 | 0.00 | 0.00 | 0.00 | 65 | 1014.6 |
| 20260505051304 | 20 | 218 | 3.2 | 4.8 | 0.00 | 0.00 | 0.00 | 67 | 1014.6 |
| 20260505050304 | 20 | 215 | 4.8 | 4.8 | 0.00 | 0.00 | 0.00 | 68 | 1014.6 |
| 20260505041554 | 20 | 200 | 4.8 | 8.0 | 0.00 | 0.00 | 0.00 | 66 | 1014.9 |
| 20260505040804 | 20 | 253 | 3.2 | 9.7 | 0.00 | 0.00 | 0.00 | 66 | 1014.9 |
| 20260505040305 | 21 | 234 | 3.2 | 9.7 | 0.00 | 0.00 | 0.00 | 66 | 1014.9 |
| 20260505040057 | 20 | 253 | 1.6 | 9.7 | 0.00 | 0.00 | 0.00 | 66 | 1015.0 |
| 20260505035804 | 21 | 234 | 3.2 | 9.7 | 0.00 | 0.00 | 0.00 | 66 | 1014.9 |
| 20260505035304 | 21 | 234 | 3.2 | 9.7 | 0.00 | 0.00 | 0.00 | 66 | 1014.9 |
| 20260505034557 | 20 | 234 | 4.8 | 9.7 | 0.00 | 0.00 | 0.00 | 66 | 1014.9 |
| 20260505034304 | 20 | 208 | 4.8 | 9.7 | 0.00 | 0.00 | 0.00 | 65 | 1014.9 |
| 20260505033804 | 20 | 208 | 4.8 | 9.7 | 0.00 | 0.00 | 0.00 | 65 | 1014.9 |
| 20260505033304 | 20 | 208 | 4.8 | 9.7 | 0.00 | 0.00 | 0.00 | 65 | 1014.9 |
| 20260505033114 | 20 | 208 | 4.8 | 9.7 | 0.00 | 0.00 | 0.00 | 65 | 1014.7 |
| 20260505032804 | 21 | 235 | 4.8 | 9.7 | 0.00 | 0.00 | 0.00 | 67 | 1014.9 |
| 20260505032305 | 21 | 235 | 4.8 | 9.7 | 0.00 | 0.00 | 0.00 | 67 | 1014.9 |
| 20260505031804 | 20 | 209 | 4.8 | 8.0 | 0.00 | 0.00 | 0.00 | 66 | 1014.9 |
| 20260505031556 | 20 | 235 | 6.4 | 9.7 | 0.00 | 0.00 | 0.00 | 67 | 1015.0 |
| 20260505031304 | 20 | 209 | 4.8 | 8.0 | 0.00 | 0.00 | 0.00 | 66 | 1014.9 |
| 20260505030304 | 21 | 206 | 4.8 | 12.9 | 0.00 | 0.00 | 0.00 | 67 | 1014.9 |
| 20260505030105 | 20 | 209 | 3.2 | 8.0 | 0.00 | 0.00 | 0.00 | 66 | 1014.8 |
| 20260505024601 | 21 | 206 | 4.8 | 12.9 | 0.00 | 0.00 | 0.00 | 67 | 1014.7 |
| 20260505024304 | 21 | 200 | 4.8 | 9.7 | 0.00 | 0.00 | 0.00 | 67 | 1014.6 |
| 20260505023804 | 21 | 200 | 4.8 | 9.7 | 0.00 | 0.00 | 0.00 | 67 | 1014.6 |
| 20260505023304 | 21 | 218 | 12.9 | 12.9 | 0.00 | 0.00 | 0.00 | 65 | 1014.9 |
| 20260505023107 | 21 | 200 | 6.4 | 9.7 | 0.00 | 0.00 | 0.00 | 67 | 1014.6 |
| 20260505022304 | 21 | 219 | 12.9 | 12.9 | 0.00 | 0.00 | 0.00 | 65 | 1014.9 |
| 20260505021804 | 21 | 219 | 8.0 | 12.9 | 0.00 | 0.00 | 0.00 | 65 | 1014.9 |
| 20260505021557 | 21 | 219 | 8.0 | 12.9 | 0.00 | 0.00 | 0.00 | 65 | 1014.7 |
| 20260505021304 | 21 | 201 | 3.2 | 11.3 | 0.00 | 0.00 | 0.00 | 67 | 1014.9 |
| 20260505020304 | 21 | 176 | 4.8 | 12.9 | 0.00 | 0.00 | 0.00 | 64 | 1014.9 |
| 20260505020056 | 21 | 201 | 6.4 | 11.3 | 0.00 | 0.00 | 0.00 | 67 | 1014.7 |
| 20260505015804 | 21 | 176 | 4.8 | 12.9 | 0.00 | 0.00 | 0.00 | 64 | 1014.9 |
| 20260505015304 | 21 | 176 | 4.8 | 12.9 | 0.00 | 0.00 | 0.00 | 64 | 1014.9 |
| 20260505014804 | 21 | 182 | 4.8 | 12.9 | 0.00 | 0.00 | 0.00 | 65 | 1015.2 |
| 20260505014557 | 21 | 176 | 6.4 | 12.9 | 0.00 | 0.00 | 0.00 | 64 | 1014.8 |
| 20260505014304 | 21 | 182 | 4.8 | 12.9 | 0.00 | 0.00 | 0.00 | 65 | 1015.2 |
| 20260505013804 | 21 | 182 | 4.8 | 12.9 | 0.00 | 0.00 | 0.00 | 65 | 1015.2 |
| 20260505013304 | 21 | 208 | 3.2 | 9.7 | 0.00 | 0.00 | 0.00 | 63 | 1015.2 |
| 20260505013055 | 21 | 182 | 6.4 | 12.9 | 0.00 | 0.00 | 0.00 | 65 | 1015.0 |
| 20260505012304 | 21 | 208 | 3.2 | 12.9 | 0.00 | 0.00 | 0.00 | 63 | 1015.2 |
| 20260505011804 | 21 | 236 | 4.8 | 12.9 | 0.00 | 0.00 | 0.00 | 64 | 1015.2 |
| 20260505011601 | 21 | 208 | 6.4 | 9.7 | 0.00 | 0.00 | 0.00 | 63 | 1015.2 |
| 20260505011304 | 21 | 236 | 4.8 | 12.9 | 0.00 | 0.00 | 0.00 | 64 | 1015.2 |
| 20260505010804 | 21 | 236 | 4.8 | 12.9 | 0.00 | 0.00 | 0.00 | 64 | 1015.2 |
| 20260505010304 | 21 | 228 | 4.8 | 9.7 | 0.00 | 0.00 | 0.00 | 63 | 1015.2 |
| 20260505005804 | 21 | 228 | 4.8 | 9.7 | 0.00 | 0.00 | 0.00 | 63 | 1015.2 |
| 20260505005304 | 21 | 228 | 4.8 | 9.7 | 0.00 | 0.00 | 0.00 | 63 | 1015.2 |
| 20260505004804 | 21 | 218 | 1.6 | 9.7 | 0.00 | 0.00 | 0.00 | 59 | 1015.2 |
| 20260505004559 | 21 | 228 | 3.2 | 9.7 | 0.00 | 0.00 | 0.00 | 63 | 1015.2 |
| 20260505004303 | 21 | 218 | 1.6 | 9.7 | 0.00 | 0.00 | 0.00 | 59 | 1015.2 |
| 20260505003804 | 21 | 218 | 1.6 | 16.1 | 0.00 | 0.00 | 0.00 | 59 | 1015.2 |
| 20260505003304 | 21 | 206 | 14.5 | 16.1 | 0.00 | 0.00 | 0.00 | 59 | 1015.2 |
| 20260505003057 | 21 | 218 | 4.8 | 9.7 | 0.00 | 0.00 | 0.00 | 59 | 1015.1 |
| 20260505002304 | 21 | 206 | 14.5 | 16.1 | 0.00 | 0.00 | 0.00 | 59 | 1015.2 |
| 20260505001803 | 21 | 208 | 9.7 | 19.3 | 0.00 | 0.00 | 0.00 | 59 | 1015.2 |
| 20260505001554 | 21 | 206 | 8.0 | 16.1 | 0.00 | 0.00 | 0.00 | 59 | 1015.1 |
| 20260505001304 | 22 | 231 | 8.0 | 19.3 | 0.00 | 0.00 | 0.00 | 58 | 1015.2 |
| 20260505000805 | 22 | 231 | 8.0 | 19.3 | 0.00 | 0.00 | 0.00 | 58 | 1015.2 |
| 20260505000305 | 22 | 231 | 8.0 | 19.3 | 0.00 | 0.00 | 0.00 | 58 | 1015.2 |
| 20260505000101 | 21 | 231 | 11.3 | 17.7 | 0.00 | 0.00 | 0.00 | 58 | 1015.2 |
| 20260504235804 | 22 | 212 | 11.3 | 16.1 | 0.00 | 0.00 | 0.00 | 59 | 1015.6 |
| 20260504234804 | 22 | 186 | 8.0 | 16.1 | 0.00 | 0.00 | 0.00 | 54 | 1015.2 |
| 20260504234619 | 22 | 212 | 8.0 | 16.1 | 0.00 | 0.00 | 0.00 | 59 | 1015.4 |
| 20260504234304 | 22 | 186 | 8.0 | 16.1 | 0.00 | 0.00 | 0.00 | 54 | 1015.2 |
| 20260504233304 | 23 | 166 | 4.8 | 16.1 | 0.00 | 0.00 | 0.00 | 53 | 1015.2 |
| 20260504233056 | 22 | 186 | 9.7 | 16.1 | 0.00 | 0.00 | 0.00 | 54 | 1015.3 |
| 20260504232804 | 23 | 166 | 4.8 | 16.1 | 0.00 | 0.00 | 0.00 | 53 | 1015.2 |
| 20260504232305 | 23 | 166 | 4.8 | 16.1 | 0.00 | 0.00 | 0.00 | 53 | 1015.2 |
| 20260504231804 | 23 | 214 | 9.7 | 16.1 | 0.00 | 0.00 | 0.00 | 55 | 1015.6 |
| 20260504231605 | 22 | 166 | 8.0 | 16.1 | 0.00 | 0.00 | 0.00 | 53 | 1015.3 |
| 20260504231304 | 23 | 214 | 9.7 | 16.1 | 0.00 | 0.00 | 0.00 | 55 | 1015.6 |
| 20260504230100 | 23 | 214 | 6.4 | 16.1 | 0.00 | 0.00 | 0.00 | 55 | 1015.5 |
| 20260504225804 | 23 | 241 | 14.5 | 20.9 | 0.00 | 0.00 | 0.00 | 53 | 1015.2 |
| 20260504225304 | 23 | 241 | 14.5 | 20.9 | 0.00 | 0.00 | 0.00 | 53 | 1015.2 |
| 20260504224804 | 23 | 241 | 12.9 | 22.5 | 0.00 | 0.00 | 0.00 | 53 | 1015.2 |
| 20260504224605 | 22 | 241 | 8.0 | 20.9 | 0.00 | 0.00 | 0.00 | 53 | 1015.3 |
| 20260504223304 | 23 | 176 | 4.8 | 16.1 | 0.00 | 0.00 | 0.00 | 53 | 1015.6 |
| 20260504223056 | 23 | 127 | 9.7 | 22.5 | 0.00 | 0.00 | 0.00 | 54 | 1015.3 |
| 20260504222305 | 23 | 176 | 4.8 | 19.3 | 0.00 | 0.00 | 0.00 | 53 | 1015.6 |
| 20260504221804 | 23 | 218 | 14.5 | 19.3 | 0.00 | 0.00 | 0.00 | 50 | 1015.2 |
| 20260504221604 | 22 | 176 | 9.7 | 16.1 | 0.00 | 0.00 | 0.00 | 53 | 1015.5 |
| 20260504221304 | 23 | 218 | 14.5 | 19.3 | 0.00 | 0.00 | 0.00 | 50 | 1015.2 |
| 20260504220804 | 23 | 218 | 14.5 | 20.9 | 0.00 | 0.00 | 0.00 | 50 | 1015.2 |
| 20260504220304 | 23 | 229 | 14.5 | 20.9 | 0.00 | 0.00 | 0.00 | 50 | 1015.6 |
| 20260504220057 | 23 | 218 | 9.7 | 19.3 | 0.00 | 0.00 | 0.00 | 50 | 1015.3 |
| 20260504215804 | 23 | 229 | 14.5 | 20.9 | 0.00 | 0.00 | 0.00 | 50 | 1015.6 |
| 20260504215305 | 23 | 229 | 14.5 | 20.9 | 0.00 | 0.00 | 0.00 | 50 | 1015.6 |
| 20260504214804 | 23 | 182 | 14.5 | 19.3 | 0.00 | 0.00 | 0.00 | 52 | 1015.6 |
| 20260504214603 | 23 | 229 | 8.0 | 20.9 | 0.00 | 0.00 | 0.00 | 50 | 1015.4 |
| 20260504214304 | 23 | 182 | 14.5 | 19.3 | 0.00 | 0.00 | 0.00 | 52 | 1015.6 |
| 20260504213803 | 23 | 182 | 14.5 | 19.3 | 0.00 | 0.00 | 0.00 | 52 | 1015.6 |
| 20260504213304 | 23 | 202 | 11.3 | 19.3 | 0.00 | 0.00 | 0.00 | 49 | 1015.6 |
| 20260504213103 | 23 | 182 | 9.7 | 17.7 | 0.00 | 0.00 | 0.00 | 52 | 1015.4 |
| 20260504212804 | 23 | 207 | 11.3 | 19.3 | 0.00 | 0.00 | 0.00 | 48 | 1015.6 |
| 20260504212304 | 23 | 207 | 11.3 | 19.3 | 0.00 | 0.00 | 0.00 | 48 | 1015.6 |
| 20260504211803 | 23 | 205 | 9.7 | 19.3 | 0.00 | 0.00 | 0.00 | 48 | 1015.6 |
| 20260504211557 | 23 | 207 | 11.3 | 19.3 | 0.00 | 0.00 | 0.00 | 48 | 1015.7 |
| 20260504211304 | 23 | 174 | 9.7 | 16.1 | 0.00 | 0.00 | 0.00 | 48 | 1015.6 |
| 20260504210804 | 23 | 174 | 9.7 | 16.1 | 0.00 | 0.00 | 0.00 | 48 | 1015.6 |
| 20260504210304 | 23 | 174 | 9.7 | 19.3 | 0.00 | 0.00 | 0.00 | 48 | 1015.6 |
| 20260504210105 | 23 | 174 | 9.7 | 16.1 | 0.00 | 0.00 | 0.00 | 48 | 1015.6 |
| 20260504205804 | 22 | 132 | 9.7 | 19.3 | 0.00 | 0.00 | 0.00 | 53 | 1015.9 |
| 20260504205304 | 22 | 132 | 9.7 | 19.3 | 0.00 | 0.00 | 0.00 | 53 | 1015.9 |
| 20260504204804 | 23 | 171 | 11.3 | 16.1 | 0.00 | 0.00 | 0.00 | 51 | 1015.9 |
| 20260504204638 | 22 | 132 | 11.3 | 17.7 | 0.00 | 0.00 | 0.00 | 53 | 1015.8 |
| 20260504204304 | 23 | 171 | 11.3 | 16.1 | 0.00 | 0.00 | 0.00 | 51 | 1015.9 |
| 20260504203803 | 23 | 171 | 11.3 | 19.3 | 0.00 | 0.00 | 0.00 | 51 | 1015.9 |
| 20260504203304 | 23 | 142 | 4.8 | 19.3 | 0.00 | 0.00 | 0.00 | 51 | 1015.9 |
| 20260504203102 | 22 | 171 | 6.4 | 16.1 | 0.00 | 0.00 | 0.00 | 51 | 1015.8 |
| 20260504202804 | 23 | 142 | 4.8 | 19.3 | 0.00 | 0.00 | 0.00 | 51 | 1015.9 |
| 20260504202305 | 23 | 142 | 4.8 | 19.3 | 0.00 | 0.00 | 0.00 | 51 | 1015.9 |
| 20260504201803 | 23 | 108 | 4.8 | 19.3 | 0.00 | 0.00 | 0.00 | 49 | 1016.3 |
| 20260504201602 | 22 | 142 | 6.4 | 17.7 | 0.00 | 0.00 | 0.00 | 51 | 1015.9 |
| 20260504201304 | 23 | 108 | 4.8 | 19.3 | 0.00 | 0.00 | 0.00 | 49 | 1016.3 |
| 20260504200804 | 23 | 108 | 4.8 | 19.3 | 0.00 | 0.00 | 0.00 | 49 | 1016.3 |
| 20260504200304 | 22 | 121 | 8.0 | 19.3 | 0.00 | 0.00 | 0.00 | 48 | 1016.3 |
| 20260504195804 | 22 | 121 | 8.0 | 19.3 | 0.00 | 0.00 | 0.00 | 48 | 1016.3 |
| 20260504195304 | 22 | 121 | 8.0 | 19.3 | 0.00 | 0.00 | 0.00 | 48 | 1016.3 |
| 20260504194804 | 22 | 145 | 9.7 | 19.3 | 0.00 | 0.00 | 0.00 | 48 | 1016.4 |
| 20260504194558 | 22 | 121 | 11.3 | 17.7 | 0.00 | 0.00 | 0.00 | 48 | 1016.3 |
| 20260504194303 | 22 | 181 | 9.7 | 14.5 | 0.00 | 0.00 | 0.00 | 49 | 1016.6 |
| 20260504193804 | 22 | 181 | 9.7 | 14.5 | 0.00 | 0.00 | 0.00 | 49 | 1016.6 |
| 20260504193304 | 22 | 181 | 8.0 | 14.5 | 0.00 | 0.00 | 0.00 | 49 | 1016.6 |
| 20260504193059 | 22 | 181 | 11.3 | 14.5 | 0.00 | 0.00 | 0.00 | 49 | 1016.6 |
| 20260504192304 | 22 | 115 | 4.8 | 14.5 | 0.00 | 0.00 | 0.00 | 48 | 1016.6 |
| 20260504191804 | 22 | 115 | 4.8 | 14.5 | 0.00 | 0.00 | 0.00 | 48 | 1016.6 |
| 20260504191557 | 22 | 115 | 9.7 | 14.5 | 0.00 | 0.00 | 0.00 | 48 | 1016.7 |
| 20260504191304 | 22 | 119 | 4.8 | 12.9 | 0.00 | 0.00 | 0.00 | 46 | 1017.3 |
| 20260504190804 | 22 | 119 | 4.8 | 12.9 | 0.00 | 0.00 | 0.00 | 46 | 1017.3 |
| 20260504190304 | 22 | 119 | 4.8 | 12.9 | 0.00 | 0.00 | 0.00 | 46 | 1017.3 |
| 20260504190101 | 22 | 119 | 8.0 | 12.9 | 0.00 | 0.00 | 0.00 | 46 | 1017.2 |
| 20260504185803 | 22 | 127 | 4.8 | 12.9 | 0.00 | 0.00 | 0.00 | 47 | 1017.3 |
| 20260504185304 | 22 | 127 | 4.8 | 14.5 | 0.00 | 0.00 | 0.00 | 47 | 1017.3 |
| 20260504184804 | 22 | 165 | 3.2 | 14.5 | 0.00 | 0.00 | 0.00 | 48 | 1017.3 |
| 20260504184605 | 22 | 127 | 6.4 | 12.9 | 0.00 | 0.00 | 0.00 | 47 | 1017.2 |
| 20260504183804 | 22 | 165 | 3.2 | 14.5 | 0.00 | 0.00 | 0.00 | 48 | 1017.3 |
| 20260504183304 | 22 | 139 | 4.8 | 9.7 | 0.00 | 0.00 | 0.00 | 49 | 1017.3 |
| 20260504183100 | 22 | 165 | 4.8 | 14.5 | 0.00 | 0.00 | 0.00 | 48 | 1017.3 |
| 20260504182804 | 22 | 139 | 4.8 | 9.7 | 0.00 | 0.00 | 0.00 | 49 | 1017.3 |
| 20260504182304 | 22 | 139 | 4.8 | 12.9 | 0.00 | 0.00 | 0.00 | 49 | 1017.3 |
| 20260504181804 | 22 | 129 | 4.8 | 12.9 | 0.00 | 0.00 | 0.00 | 48 | 1017.6 |
| 20260504181557 | 22 | 139 | 4.8 | 9.7 | 0.00 | 0.00 | 0.00 | 49 | 1017.3 |
| 20260504180804 | 22 | 129 | 4.8 | 12.9 | 0.00 | 0.00 | 0.00 | 48 | 1017.6 |
| 20260504180304 | 22 | 146 | 9.7 | 9.7 | 0.00 | 0.00 | 0.00 | 47 | 1017.6 |
| 20260504180055 | 22 | 129 | 4.8 | 12.9 | 0.00 | 0.00 | 0.00 | 48 | 1017.4 |
| 20260504175803 | 22 | 146 | 9.7 | 9.7 | 0.00 | 0.00 | 0.00 | 47 | 1017.6 |
| 20260504175304 | 22 | 146 | 9.7 | 11.3 | 0.00 | 0.00 | 0.00 | 47 | 1017.6 |
| 20260504174804 | 22 | 120 | 8.0 | 11.3 | 0.00 | 0.00 | 0.00 | 52 | 1017.6 |
| 20260504174557 | 21 | 146 | 6.4 | 9.7 | 0.00 | 0.00 | 0.00 | 47 | 1017.5 |
| 20260504174304 | 22 | 120 | 8.0 | 11.3 | 0.00 | 0.00 | 0.00 | 52 | 1017.6 |
| 20260504173804 | 22 | 120 | 8.0 | 11.3 | 0.00 | 0.00 | 0.00 | 52 | 1017.6 |
| 20260504173304 | 22 | 113 | 6.4 | 11.3 | 0.00 | 0.00 | 0.00 | 51 | 1017.8 |
| 20260504173056 | 21 | 120 | 6.4 | 11.3 | 0.00 | 0.00 | 0.00 | 52 | 1017.6 |
| 20260504172804 | 22 | 102 | 4.8 | 11.3 | 0.00 | 0.00 | 0.00 | 50 | 1017.9 |
| 20260504172304 | 22 | 102 | 4.8 | 11.3 | 0.00 | 0.00 | 0.00 | 50 | 1017.9 |
| 20260504171804 | 22 | 102 | 6.4 | 12.9 | 0.00 | 0.00 | 0.00 | 50 | 1017.9 |
| 20260504171557 | 21 | 102 | 6.4 | 11.3 | 0.00 | 0.00 | 0.00 | 50 | 1018.0 |
| 20260504171304 | 22 | 107 | 8.0 | 12.9 | 0.00 | 0.00 | 0.00 | 49 | 1017.9 |
| 20260504170803 | 22 | 107 | 8.0 | 12.9 | 0.00 | 0.00 | 0.00 | 49 | 1017.9 |
| 20260504170303 | 22 | 107 | 8.0 | 12.9 | 0.00 | 0.00 | 0.00 | 49 | 1017.9 |
| 20260504160304 | 21 | 114 | 11.3 | 11.3 | 0.00 | 0.00 | 0.00 | 60 | 1018.6 |